Annandale, Virginia
Current Conditions -  °F | °C
As of 3:39 PM on Monday 22 Dec 2014 (Local Time) from KDAA Reporting Station
Light Rain Light Rain  
Wind Chill: 36°   Ceiling: 600
Heat Index: 36°   Visibility: 1.7mi
Dew Point: 32°   Wind: 2mph
Humidity: 87%   Direction: NA
Pressure: 30.17"   Gusts: NA
Location:  38.83°N, 77.19°W
Report Text: KDAA 222039Z AUTO VRB02KT 1 3/4SM -RA BR BKN006 OVC010 02/00 A3017 RMK AO2 VIS 1 3/4V2 1/2 RAE1957B2036DZB1957E2015B2030E2036
Loading
Personal Weather Stations






























Interactive Weather Map New forecast layout! Learn more

10-Day Weather Forecast

Advertisements
Track Severe Weather on mobile